sensor_id;sensor_type;location;lat;lon;timestamp;pressure;altitude;pressure_sealevel;temperature;humidity
60427;BME280;46274;47.168;27.604;2024-03-23T00:52:17;99632.16;;;3.95;98.57
60427;BME280;46274;47.168;27.604;2024-03-23T00:58:18;99703.25;;;4.46;100.00
60427;BME280;46274;47.168;27.604;2024-03-23T01:04:19;99681.44;;;4.69;97.55
60427;BME280;46274;47.168;27.604;2024-03-23T01:10:21;99678.41;;;4.81;96.34
60427;BME280;46274;47.168;27.604;2024-03-23T01:16:22;99695.91;;;4.86;95.23
60427;BME280;46274;47.168;27.604;2024-03-23T01:22:23;99668.19;;;4.20;100.00
60427;BME280;46274;47.168;27.604;2024-03-23T01:28:24;99639.75;;;4.74;96.60
60427;BME280;46274;47.168;27.604;2024-03-23T01:34:25;99594.25;;;4.18;97.88
60427;BME280;46274;47.168;27.604;2024-03-23T01:40:27;99683.44;;;4.94;92.71
60427;BME280;46274;47.168;27.604;2024-03-23T01:46:32;99676.81;;;4.89;90.44
60427;BME280;46274;47.168;27.604;2024-03-23T01:52:33;99670.16;;;4.65;91.89
60427;BME280;46274;47.168;27.604;2024-03-23T01:58:34;99671.78;;;3.91;97.33
60427;BME280;46274;47.168;27.604;2024-03-23T02:04:37;99615.47;;;4.11;95.05
60427;BME280;46274;47.168;27.604;2024-03-23T02:10:38;99663.28;;;4.53;96.96
60427;BME280;46274;47.168;27.604;2024-03-23T02:16:39;99626.59;;;4.16;94.86
60427;BME280;46274;47.168;27.604;2024-03-23T02:22:40;99648.09;;;2.99;100.00
60427;BME280;46274;47.168;27.604;2024-03-23T02:28:41;99653.22;;;3.22;100.00
60427;BME280;46274;47.168;27.604;2024-03-23T02:34:42;99627.63;;;4.05;100.00
60427;BME280;46274;47.168;27.604;2024-03-23T02:40:43;99627.56;;;4.15;100.00
60427;BME280;46274;47.168;27.604;2024-03-23T02:46:44;99623.84;;;4.35;100.00
60427;BME280;46274;47.168;27.604;2024-03-23T02:52:45;99605.94;;;4.54;99.44
60427;BME280;46274;47.168;27.604;2024-03-23T02:58:46;99588.63;;;4.48;98.16
60427;BME280;46274;47.168;27.604;2024-03-23T03:04:47;99599.53;;;4.47;97.15
60427;BME280;46274;47.168;27.604;2024-03-23T03:10:48;99593.28;;;4.46;97.85
60427;BME280;46274;47.168;27.604;2024-03-23T03:16:50;99582.38;;;4.30;97.62
60427;BME280;46274;47.168;27.604;2024-03-23T03:22:51;99590.53;;;4.28;95.57
60427;BME280;46274;47.168;27.604;2024-03-23T03:28:57;99594.84;;;4.21;96.49
60427;BME280;46274;47.168;27.604;2024-03-23T03:34:58;99530.25;;;4.05;92.77
60427;BME280;46274;47.168;27.604;2024-03-23T03:40:59;99546.16;;;2.93;100.00
60427;BME280;46274;47.168;27.604;2024-03-23T03:47:00;99566.34;;;3.73;96.18
60427;BME280;46274;47.168;27.604;2024-03-23T03:53:01;99559.56;;;3.69;93.39
60427;BME280;46274;47.168;27.604;2024-03-23T03:59:04;99576.25;;;3.53;99.33
60427;BME280;46274;47.168;27.604;2024-03-23T04:05:06;99554.28;;;3.49;99.17
60427;BME280;46274;47.168;27.604;2024-03-23T04:11:08;99575.84;;;2.99;100.00
60427;BME280;46274;47.168;27.604;2024-03-23T04:17:09;99520.31;;;3.40;100.00
60427;BME280;46274;47.168;27.604;2024-03-23T04:23:10;99557.44;;;3.82;95.61
60427;BME280;46274;47.168;27.604;2024-03-23T04:29:11;99558.97;;;2.89;100.00
60427;BME280;46274;47.168;27.604;2024-03-23T04:35:13;99555.59;;;3.26;100.00
60427;BME280;46274;47.168;27.604;2024-03-23T04:41:14;99548.19;;;3.67;100.00
60427;BME280;46274;47.168;27.604;2024-03-23T04:47:15;99522.56;;;3.45;100.00
60427;BME280;46274;47.168;27.604;2024-03-23T04:53:17;99541.47;;;3.43;100.00
60427;BME280;46274;47.168;27.604;2024-03-23T04:59:18;99535.00;;;3.83;100.00
60427;BME280;46274;47.168;27.604;2024-03-23T05:05:19;99492.75;;;3.20;100.00
60427;BME280;46274;47.168;27.604;2024-03-23T05:11:20;99341.88;;;2.74;100.00
60427;BME280;46274;47.168;27.604;2024-03-23T05:17:21;99505.72;;;4.00;100.00
60427;BME280;46274;47.168;27.604;2024-03-23T05:23:22;99516.84;;;4.32;100.00
60427;BME280;46274;47.168;27.604;2024-03-23T05:29:23;99477.88;;;4.10;100.00
60427;BME280;46274;47.168;27.604;2024-03-23T05:35:27;99480.78;;;4.27;100.00
60427;BME280;46274;47.168;27.604;2024-03-23T05:41:28;99479.00;;;4.35;100.00
60427;BME280;46274;47.168;27.604;2024-03-23T05:47:29;99513.31;;;4.77;99.52
60427;BME280;46274;47.168;27.604;2024-03-23T05:53:32;99513.91;;;4.71;100.00
60427;BME280;46274;47.168;27.604;2024-03-23T05:59:34;99477.97;;;4.64;99.77
60427;BME280;46274;47.168;27.604;2024-03-23T06:05:39;99398.53;;;4.00;100.00
60427;BME280;46274;47.168;27.604;2024-03-23T06:11:40;99424.22;;;4.56;99.49
60427;BME280;46274;47.168;27.604;2024-03-23T06:17:41;99513.38;;;5.21;99.41
60427;BME280;46274;47.168;27.604;2024-03-23T06:23:42;99507.81;;;5.41;99.88
60427;BME280;46274;47.168;27.604;2024-03-23T06:29:43;99516.66;;;5.59;99.48
60427;BME280;46274;47.168;27.604;2024-03-23T06:35:50;99486.56;;;5.82;99.45
60427;BME280;46274;47.168;27.604;2024-03-23T06:41:56;99494.88;;;6.39;97.38
60427;BME280;46274;47.168;27.604;2024-03-23T06:47:57;99491.91;;;6.67;94.25
60427;BME280;46274;47.168;27.604;2024-03-23T06:53:58;99492.28;;;6.96;92.81
60427;BME280;46274;47.168;27.604;2024-03-23T06:59:59;99507.63;;;7.20;92.04
60427;BME280;46274;47.168;27.604;2024-03-23T07:06:00;99500.16;;;7.55;90.18
60427;BME280;46274;47.168;27.604;2024-03-23T07:12:01;99464.97;;;7.57;88.90
60427;BME280;46274;47.168;27.604;2024-03-23T07:18:05;99496.81;;;8.09;87.55
60427;BME280;46274;47.168;27.604;2024-03-23T07:24:06;99497.34;;;8.44;87.00
60427;BME280;46274;47.168;27.604;2024-03-23T07:30:10;99466.19;;;8.87;85.91
60427;BME280;46274;47.168;27.604;2024-03-23T07:36:11;99486.13;;;9.09;84.47
60427;BME280;46274;47.168;27.604;2024-03-23T07:42:12;99465.28;;;9.71;82.29
60427;BME280;46274;47.168;27.604;2024-03-23T07:48:13;99393.53;;;9.90;82.91
60427;BME280;46274;47.168;27.604;2024-03-23T07:54:24;99458.63;;;10.90;75.14
60427;BME280;46274;47.168;27.604;2024-03-23T08:00:36;99458.88;;;11.45;72.22
60427;BME280;46274;47.168;27.604;2024-03-23T08:06:37;99354.88;;;11.66;72.80
60427;BME280;46274;47.168;27.604;2024-03-23T08:12:39;99413.13;;;12.05;67.18
60427;BME280;46274;47.168;27.604;2024-03-23T08:18:40;99439.84;;;12.56;65.41
60427;BME280;46274;47.168;27.604;2024-03-23T08:24:57;99401.03;;;12.89;63.80
60427;BME280;46274;47.168;27.604;2024-03-23T08:31:08;99351.03;;;12.63;65.30
60427;BME280;46274;47.168;27.604;2024-03-23T08:37:11;99268.69;;;12.50;64.31
60427;BME280;46274;47.168;27.604;2024-03-23T08:43:18;99417.97;;;13.71;63.13
60427;BME280;46274;47.168;27.604;2024-03-23T08:49:19;99412.63;;;14.03;62.65
60427;BME280;46274;47.168;27.604;2024-03-23T08:55:23;99407.03;;;14.36;60.49
60427;BME280;46274;47.168;27.604;2024-03-23T09:01:25;99313.94;;;14.39;59.71
60427;BME280;46274;47.168;27.604;2024-03-23T09:07:26;99387.38;;;15.22;58.03
60427;BME280;46274;47.168;27.604;2024-03-23T09:13:27;99258.16;;;14.92;59.04
60427;BME280;46274;47.168;27.604;2024-03-23T09:19:32;99362.59;;;15.86;55.63
60427;BME280;46274;47.168;27.604;2024-03-23T09:25:40;99130.75;;;14.80;56.23
60427;BME280;46274;47.168;27.604;2024-03-23T09:31:42;99105.97;;;15.31;51.78
60427;BME280;46274;47.168;27.604;2024-03-23T09:37:52;99243.44;;;15.73;49.78
60427;BME280;46274;47.168;27.604;2024-03-23T09:44:09;99190.22;;;16.06;51.25
60427;BME280;46274;47.168;27.604;2024-03-23T09:50:35;99321.31;;;17.20;52.64
60427;BME280;46274;47.168;27.604;2024-03-23T09:56:39;99307.13;;;17.11;49.95
60427;BME280;46274;47.168;27.604;2024-03-23T10:02:41;99228.81;;;16.75;50.12
60427;BME280;46274;47.168;27.604;2024-03-23T10:08:59;99048.94;;;16.18;50.30
60427;BME280;46274;47.168;27.604;2024-03-23T10:15:00;99277.53;;;17.72;50.54
60427;BME280;46274;47.168;27.604;2024-03-23T10:21:20;99227.63;;;17.99;50.15
60427;BME280;46274;47.168;27.604;2024-03-23T10:27:21;99194.56;;;17.08;47.00
60427;BME280;46274;47.168;27.604;2024-03-23T10:33:58;99238.66;;;17.75;46.52
60427;BME280;46274;47.168;27.604;2024-03-23T10:40:21;99027.38;;;16.69;49.06
60427;BME280;46274;47.168;27.604;2024-03-23T10:46:49;99231.41;;;17.40;44.72
60427;BME280;46274;47.168;27.604;2024-03-23T10:53:50;98998.91;;;17.22;47.53
60427;BME280;46274;47.168;27.604;2024-03-23T11:00:19;98957.28;;;15.99;44.60
60427;BME280;46274;47.168;27.604;2024-03-23T11:06:41;99100.28;;;17.73;45.69
60427;BME280;46274;47.168;27.604;2024-03-23T11:13:21;99171.00;;;17.87;43.67
60427;BME280;46274;47.168;27.604;2024-03-23T11:19:35;99146.53;;;18.48;43.14
60427;BME280;46274;47.168;27.604;2024-03-23T11:25:57;99140.03;;;17.75;43.93
60427;BME280;46274;47.168;27.604;2024-03-23T11:32:24;98901.00;;;17.29;44.56
60427;BME280;46274;47.168;27.604;2024-03-23T11:45:21;99110.38;;;18.35;43.18
60427;BME280;46274;47.168;27.604;2024-03-23T11:51:51;99015.03;;;18.03;41.88
60427;BME280;46274;47.168;27.604;2024-03-23T11:58:01;99012.06;;;18.04;42.30
60427;BME280;46274;47.168;27.604;2024-03-23T12:04:06;98960.06;;;18.31;42.59
60427;BME280;46274;47.168;27.604;2024-03-23T12:10:43;98864.41;;;17.91;42.83
60427;BME280;46274;47.168;27.604;2024-03-23T12:17:10;99067.22;;;18.86;40.41
60427;BME280;46274;47.168;27.604;2024-03-23T12:30:40;98962.81;;;18.76;42.67
60427;BME280;46274;47.168;27.604;2024-03-23T13:06:02;98986.84;;;19.17;40.94
60427;BME280;46274;47.168;27.604;2024-03-23T13:12:06;98786.41;;;17.99;40.47
60427;BME280;46274;47.168;27.604;2024-03-23T13:18:52;98747.06;;;17.22;40.34
60427;BME280;46274;47.168;27.604;2024-03-23T13:39:55;98754.47;;;17.65;42.38
60427;BME280;46274;47.168;27.604;2024-03-23T14:08:10;98863.56;;;18.57;41.36
60427;BME280;46274;47.168;27.604;2024-03-23T14:14:38;98724.81;;;17.35;40.46
60427;BME280;46274;47.168;27.604;2024-03-23T14:28:36;98940.56;;;18.99;39.69
60427;BME280;46274;47.168;27.604;2024-03-23T14:34:49;98709.75;;;17.60;40.79
60427;BME280;46274;47.168;27.604;2024-03-23T14:41:53;98840.56;;;18.63;40.70
60427;BME280;46274;47.168;27.604;2024-03-23T14:55:43;98671.94;;;17.13;41.14
60427;BME280;46274;47.168;27.604;2024-03-23T15:01:53;98820.00;;;18.11;41.42
60427;BME280;46274;47.168;27.604;2024-03-23T15:22:14;98886.53;;;17.84;42.81
60427;BME280;46274;47.168;27.604;2024-03-23T15:28:18;98792.75;;;17.21;43.41
60427;BME280;46274;47.168;27.604;2024-03-23T15:34:21;98825.88;;;17.20;43.45
60427;BME280;46274;47.168;27.604;2024-03-23T15:40:42;98862.28;;;17.37;44.60
60427;BME280;46274;47.168;27.604;2024-03-23T15:47:06;98733.22;;;16.44;45.93
60427;BME280;46274;47.168;27.604;2024-03-23T15:53:27;98869.13;;;17.06;45.93
60427;BME280;46274;47.168;27.604;2024-03-23T16:00:03;98644.84;;;15.59;45.31
60427;BME280;46274;47.168;27.604;2024-03-23T16:13:17;98638.09;;;15.21;47.50
60427;BME280;46274;47.168;27.604;2024-03-23T16:26:46;98591.97;;;14.56;50.97
60427;BME280;46274;47.168;27.604;2024-03-23T16:32:56;98861.88;;;16.38;51.16
60427;BME280;46274;47.168;27.604;2024-03-23T16:39:32;98853.47;;;16.27;52.29
60427;BME280;46274;47.168;27.604;2024-03-23T16:46:04;98612.38;;;14.53;51.54
60427;BME280;46274;47.168;27.604;2024-03-23T16:52:34;98595.09;;;13.82;52.15
60427;BME280;46274;47.168;27.604;2024-03-23T16:58:54;98611.53;;;13.75;52.10
60427;BME280;46274;47.168;27.604;2024-03-23T17:05:11;98597.91;;;13.64;52.10
60427;BME280;46274;47.168;27.604;2024-03-23T17:11:47;98619.28;;;13.60;52.28
60427;BME280;46274;47.168;27.604;2024-03-23T17:17:58;98631.66;;;13.44;52.68
60427;BME280;46274;47.168;27.604;2024-03-23T17:32:04;98669.31;;;13.29;54.66
60427;BME280;46274;47.168;27.604;2024-03-23T17:38:30;98612.38;;;12.42;55.14
60427;BME280;46274;47.168;27.604;2024-03-23T17:45:07;98871.25;;;14.23;53.83
60427;BME280;46274;47.168;27.604;2024-03-23T17:51:46;98776.25;;;13.66;54.13
60427;BME280;46274;47.168;27.604;2024-03-23T17:58:13;98607.09;;;12.65;54.40
60427;BME280;46274;47.168;27.604;2024-03-23T18:04:56;98632.16;;;12.68;55.79
60427;BME280;46274;47.168;27.604;2024-03-23T18:11:25;98850.69;;;13.90;56.91
60427;BME280;46274;47.168;27.604;2024-03-23T18:18:03;98760.41;;;13.20;57.53
60427;BME280;46274;47.168;27.604;2024-03-23T18:24:27;98857.28;;;13.64;58.47
60427;BME280;46274;47.168;27.604;2024-03-23T18:31:17;98585.50;;;11.84;59.03
60427;BME280;46274;47.168;27.604;2024-03-23T18:50:51;98598.72;;;11.73;59.91
60427;BME280;46274;47.168;27.604;2024-03-23T18:57:00;98597.66;;;12.06;59.10
60427;BME280;46274;47.168;27.604;2024-03-23T19:03:37;98644.59;;;12.57;57.97
60427;BME280;46274;47.168;27.604;2024-03-23T19:16:37;98743.75;;;12.73;59.92
60427;BME280;46274;47.168;27.604;2024-03-23T19:22:53;98603.53;;;11.40;61.18
60427;BME280;46274;47.168;27.604;2024-03-23T19:29:04;98593.06;;;11.43;60.57
60427;BME280;46274;47.168;27.604;2024-03-23T19:35:09;98593.75;;;11.00;62.24
60427;BME280;46274;47.168;27.604;2024-03-23T19:41:36;98577.16;;;11.53;60.02
60427;BME280;46274;47.168;27.604;2024-03-23T19:47:42;98745.19;;;12.50;60.87
60427;BME280;46274;47.168;27.604;2024-03-23T19:53:56;98578.06;;;11.41;60.46
60427;BME280;46274;47.168;27.604;2024-03-23T19:59:58;98716.00;;;12.14;60.26
60427;BME280;46274;47.168;27.604;2024-03-23T20:06:17;98564.19;;;9.80;67.32
60427;BME280;46274;47.168;27.604;2024-03-23T20:12:31;98558.75;;;10.40;65.32
60427;BME280;46274;47.168;27.604;2024-03-23T20:18:47;98804.34;;;12.16;64.87
60427;BME280;46274;47.168;27.604;2024-03-23T20:24:58;98783.16;;;11.93;65.16
60427;BME280;46274;47.168;27.604;2024-03-23T20:31:07;98796.28;;;12.35;63.85
60427;BME280;46274;47.168;27.604;2024-03-23T20:37:22;98788.41;;;11.23;67.95
60427;BME280;46274;47.168;27.604;2024-03-23T20:43:23;98771.78;;;11.00;68.45
60427;BME280;46274;47.168;27.604;2024-03-23T20:49:30;98761.63;;;11.40;66.79
60427;BME280;46274;47.168;27.604;2024-03-23T20:55:40;98769.97;;;11.52;66.22
60427;BME280;46274;47.168;27.604;2024-03-23T21:01:58;98746.16;;;10.82;69.76
60427;BME280;46274;47.168;27.604;2024-03-23T21:08:14;98774.66;;;11.18;68.24
60427;BME280;46274;47.168;27.604;2024-03-23T21:14:34;98666.78;;;10.68;66.63
60427;BME280;46274;47.168;27.604;2024-03-23T21:20:42;98465.44;;;9.25;66.13
60427;BME280;46274;47.168;27.604;2024-03-23T21:27:06;98497.22;;;9.23;68.02
60427;BME280;46274;47.168;27.604;2024-03-23T21:33:23;98638.81;;;10.81;63.91
60427;BME280;46274;47.168;27.604;2024-03-23T21:39:42;98464.78;;;9.63;64.50
60427;BME280;46274;47.168;27.604;2024-03-23T21:46:05;98478.69;;;9.99;61.55
60427;BME280;46274;47.168;27.604;2024-03-23T21:52:14;98623.31;;;11.08;60.66
60427;BME280;46274;47.168;27.604;2024-03-23T21:58:35;98437.91;;;9.94;60.79
60427;BME280;46274;47.168;27.604;2024-03-23T22:04:55;98536.63;;;10.57;60.63
60427;BME280;46274;47.168;27.604;2024-03-23T22:11:02;98614.03;;;10.84;61.97
60427;BME280;46274;47.168;27.604;2024-03-23T22:17:04;98407.59;;;9.66;61.59
60427;BME280;46274;47.168;27.604;2024-03-23T22:23:15;98451.72;;;9.06;64.32
60427;BME280;46274;47.168;27.604;2024-03-23T22:29:28;98628.91;;;10.09;65.54
60427;BME280;46274;47.168;27.604;2024-03-23T22:35:34;98688.25;;;10.57;66.19
60427;BME280;46274;47.168;27.604;2024-03-23T22:41:35;98609.34;;;10.20;65.41
60427;BME280;46274;47.168;27.604;2024-03-23T22:47:36;98588.97;;;9.84;66.42
60427;BME280;46274;47.168;27.604;2024-03-23T23:00:21;98654.13;;;10.29;66.72
60427;BME280;46274;47.168;27.604;2024-03-23T23:06:23;98676.81;;;10.41;67.52
60427;BME280;46274;47.168;27.604;2024-03-23T23:12:32;98660.16;;;10.51;66.32
60427;BME280;46274;47.168;27.604;2024-03-23T23:18:33;98579.38;;;10.01;65.71
60427;BME280;46274;47.168;27.604;2024-03-23T23:24:38;98663.19;;;10.81;64.31
60427;BME280;46274;47.168;27.604;2024-03-23T23:30:57;98571.03;;;10.23;64.52
60427;BME280;46274;47.168;27.604;2024-03-23T23:37:03;98515.31;;;9.29;67.31
60427;BME280;46274;47.168;27.604;2024-03-23T23:43:13;98603.09;;;10.39;64.93
60427;BME280;46274;47.168;27.604;2024-03-23T23:49:14;98641.13;;;10.78;63.98
60427;BME280;46274;47.168;27.604;2024-03-23T23:55:27;98398.09;;;9.30;63.88
